^^

Forecast Yr.no

English only

  Yr.no V2


NEW! Browse more than 3 million forecasts in 240 countries.
How-to: Choose country in dropdown, then write few first letters of the place in the box and the search suggests hits.



Forecast for Petit Raffray, Mauritius

Last update: 25.05.2020 01:12
Next update: 25.05.2020 07:18
Latitude: 20.03° S
Longitude: 57.62° E
Altitude: 43 m

hPa
mm °C
    Temperature Precipitation Pressure Wind Humidity Clouds Fog
 06:35     17:37 Today
09:00   1019.8 hPa 26 km/h 72% 29%
10:00   1019.9 hPa 25 km/h 68% 27%
11:00   1019.5 hPa 27 km/h 65% 29%
12:00   1019.1 hPa 27 km/h 64% 32%
13:00 0.1 mm 1018.5 hPa 27 km/h 67% 38%
14:00 0.1 mm 1017.9 hPa 27 km/h 68% 43%
15:00 0.1 mm 1017.8 hPa 27 km/h 69% 45%
16:00 0.1 mm 1018.1 hPa 26 km/h 71% 36%
17:00 0.1 mm 1018.3 hPa 26 km/h 76% 37%
18:00 0.1 mm 1018.7 hPa 25 km/h 84% 35%
19:00 0.1 mm 1019.2 hPa 23 km/h 86% 38%
20:00 0.1 mm 1019.7 hPa 23 km/h 86% 38%
21:00 0.1 mm 1020.1 hPa 24 km/h 87% 34%
22:00 0.2 mm 1020.1 hPa 23 km/h 89% 34%
23:00 0.2 mm 1020.1 hPa 22 km/h 90% 36%
 06:35     17:37 Tomorrow
00:00 0.2 mm 1019.9 hPa 22 km/h 91% 37%
01:00 0.1 mm 1019.5 hPa 21 km/h 93% 36%
02:00 0.1 mm 1018.9 hPa 22 km/h 94% 36%
03:00 0.1 mm 1018.4 hPa 21 km/h 93% 31%
04:00   1018.1 hPa 22 km/h 92% 34%
05:00   1018.2 hPa 24 km/h 86% 27%
06:00   1018.6 hPa 24 km/h 83% 23%
07:00   1019.3 hPa 24 km/h 79% 20%
08:00   1020.0 hPa 27 km/h 71% 20%
09:00   1020.6 hPa 30 km/h 66% 13%
10:00   1020.8 hPa 30 km/h 62% 13%
11:00   1020.3 hPa 30 km/h 58% 21%
12:00   1019.5 hPa 29 km/h 57% 8%
13:00   1018.9 hPa 28 km/h 58% 34%
14:00   1018.4 hPa 26 km/h 63% 21%
15:00   1018.2 hPa 25 km/h 64% 49%
16:00   1018.5 hPa 25 km/h 68% 49%
17:00   1019.0 hPa 24 km/h 71% 28%
18:00   1019.5 hPa 20 km/h 77% 5%
19:00   1020.2 hPa 20 km/h 79% 9%
20:00   1021.0 hPa 20 km/h 79% 17%
21:00   1021.4 hPa 19 km/h 78% 10%
22:00   1021.6 hPa 20 km/h 79% 6%
23:00   1021.6 hPa 20 km/h 80% 14%
 06:35     17:37 Wednesday 27.05.2020
00:00   1021.4 hPa 20 km/h 81% 23%
01:00   1021.1 hPa 20 km/h 82% 23%
02:00   1020.5 hPa 20 km/h 82% 23%
03:00   1020.0 hPa 21 km/h 83% 26%
04:00   1019.8 hPa 21 km/h 82% 30%
05:00   1019.9 hPa 22 km/h 82% 31%
06:00   1020.4 hPa 23 km/h 83% 26%
07:00   1021.1 hPa 24 km/h 83% 13%
08:00   1021.7 hPa 28 km/h 78% 20%
09:00   1022.2 hPa 33 km/h 73% 27%
10:00 0.1 mm 1022.3 hPa 35 km/h 70% 18%
11:00   1021.7 hPa 36 km/h 66% 20%
12:00   1021.0 hPa 36 km/h 65% 31%
13:00 0.1 mm 1020.1 hPa 36 km/h 64% 31%
14:00 0.1 mm 1019.5 hPa 35 km/h 65% 32%
15:00 0.1 mm 1019.3 hPa 35 km/h 67% 31%
16:00   1019.5 hPa 33 km/h 69% 28%
17:00   1019.8 hPa 31 km/h 74% 19%
18:00   1020.2 hPa 27 km/h 78% 23%
19:00   1020.8 hPa 27 km/h 79% 19%
20:00   1021.2 hPa 27 km/h 79% 18%
21:00   1021.5 hPa 27 km/h 80% 14%
22:00   1021.6 hPa 27 km/h 81% 16%
 06:36     17:37 Thursday 28.05.2020
04:00 0.5 mm 1020.7 hPa 27 km/h 87% 43%
10:00 0.6 mm 1022.8 hPa 36 km/h 69% 13%
16:00   1020.3 hPa 33 km/h 64% 32%
22:00   1022.1 hPa 27 km/h 77% 5%
 06:36     17:37 Friday 29.05.2020
04:00   1020.0 hPa 25 km/h 79% 6%
10:00 0.9 mm 1022.1 hPa 31 km/h 73% 47%
16:00 1.3 mm 1019.3 hPa 27 km/h 76% 32%
22:00 0.3 mm 1021.4 hPa 23 km/h 84% 49%
 06:37     17:37 Saturday 30.05.2020
04:00 1.2 mm 1019.7 hPa 20 km/h 90% 70%
10:00 0.9 mm 1021.6 hPa 28 km/h 72% 47%
16:00 0.2 mm 1019.4 hPa 24 km/h 72% 20%
22:00   1021.2 hPa 17 km/h 86% 9%
 06:37     17:37 Sunday 31.05.2020
04:00   1019.4 hPa 17 km/h 89% 35%
10:00   1020.6 hPa 21 km/h 72% 31%
16:00 0.3 mm 1018.3 hPa 22 km/h 72% 23%
22:00   1019.8 hPa 17 km/h 86% 11%
 06:37     17:37 Monday 01.06.2020
04:00 0.1 mm 1018.1 hPa 21 km/h 91% 34%
10:00 0.1 mm 1019.4 hPa 28 km/h 73% 37%
16:00 0.2 mm 1017.2 hPa 29 km/h 74% 41%
22:00 0.1 mm 1019.3 hPa 26 km/h 88% 46%
 06:38     17:37 Tuesday 02.06.2020
04:00 0.3 mm 1018.6 hPa 26 km/h 90% 55%
10:00 0.1 mm 1020.1 hPa 33 km/h 64% 4%
16:00   1018.0 hPa 31 km/h 73% 31%
22:00 0.1 mm 1019.8 hPa 31 km/h 81% 7%
 06:38     17:36 Wednesday 03.06.2020
04:00   1018.2 hPa 25 km/h 81% 2%
10:00   1020.3 hPa 32 km/h 66% 16%